Accueil
METAR-TAF:

METAR-TAF

Aéroports :

Aéroport international Georges-Enesco

Bacau, Roumanie

latitude: 46-35N, longitude: 026-58E, altitude: 184 m

Observation

Le bulletin a été fait il y a 19 minutes, à 14:00 UTC
Vent 10 kt de sud/sud-est
Température 16°C
Humidité 27%
Pression 1006 hPa
Visibilité 10 km ou plus
pas de nuages en-dessous de 1500 mètres et pas de cumulonimbus.

METAR: LRBC 251400Z 15010KT CAVOK 16/M03 Q1006

Heure: 16:19 (14:19 UTC)

Prévision

Le bulletin a été fait il y a 3 heures et 19 minutes, à 11:00 UTC
Prévision valable du 25 à 12 UTC au 25 à 21 UTC
Vent 14 kt de ouest
Visibilité 10 km ou plus
pas de nuages en-dessous de 1500 mètres et pas de cumulonimbus.
Evoluant progressivement
du 25 à 15 UTC au 25 à 16 UTC
Vent 8 kt de sud

TAF: LRBC 251100Z 2512/2521 26014KT CAVOK BECMG 2515/2516 18008KT

Observations et prévisions météorologiques de plus de 4000 aéroports (messages METAR et TAF).

Les stations disponibles sont représentées par des disques jaunes et rouges sur la carte.

Passer la souris dessus pour voir le nom de la station.

Cliquer dessus pour voir les observations et prévisions météorologiques.

Pour changer de carte: cliquez sur les boutons verts avec une croix noire pour zoomer, sur le bouton vert avec un tiret pour effectuer un zoom arrière, ou sur les flèches vertes pour les cartes adjacentes.


METAR-TAF: